URMM

Details ICAO URMM (MRV)
Name MINERALNYYE VODY
Region Russia
Timezone Europe/Moscow (UTC+3.0)
Plans Departing 89
Arriving 80
Stats Elevation 1,054 ft / 321 m (AMSL)
Location 44.225073° 43.081891°
Runways 1
Magnetic Variation 7.387° E
Sunrise 2017-12-12 04:35:16 UTC / 2017-12-12 07:35:16 Local
Sunset 2017-12-12 13:30:17 UTC / 2017-12-12 16:30:17 Local
Advertisement - Login to hide

Runways

ID Width Length Bearing (true) Bearing (mag) Surface Threshold Offset Overrun Length
12 197 ft / 60 m 12,766 ft / 3,891 m 122.28° 114.89° Concrete 0 ft / 0 m 240 ft / 73 m
30 197 ft / 60 m 12,766 ft / 3,891 m 302.31° 294.92° Concrete 0 ft / 0 m 250 ft / 76 m

Map

Weather


0- 5 10 15 20 25 30 35+ Temperature / ° C

Clouds and Precipitation
Forecast for 2017-12-12 18:00 UTC. Updated an hour ago

Ground ~20,000 ft ~40,000 ft Winds

METAR

URMM 121800Z 16002MPS 8000 NSC 01/01 Q1025 R12/090070 TEMPO 0300 FG OVC002 RMK QFE741/0988

TAF

TAF URMM 121659Z 1218/1318 10003G08MPS 9999 SCT030 TX09/1312Z TNM01/1303Z TEMPO 1218/1308 3100 BR BKN011

Frequencies

Recorded 127.40 MHz ATIS
Tower 128.00 MHz START
Ground 121.90 MHz TAXIING
Approach 119.30 MHz APP
Warning: Do not use this data for real-world aviation or navigation. No guarantee of current accuracy is given.